Latest Weather Observations for Whyalla

IDS60801

Issued at 5:11 pm CST Sunday 11 April 2021 (issued every 10 minutes, with the page automatically refreshed every 10 minutes)

About weather observations | Map of weather stations | Latest weather observations for SA | Other Formats
Station Details ID: 018120 Name: WHYALLA AERO Lat: -33.05 Lon: 137.52 Height: 9.3 m
Data from the previous 72 hours. | See also: Recent months at Whyalla
Date/Time
CST
Temp
°C
App
Temp
°C
Dew
Point
°C
Rel
Hum
%
Delta-T
°C
Wind Press
QNH
hPa
Press
MSL
hPa
Rain since
9am
mm
Dir  Spd
km/h
Gust
km/h
Spd
kts
Gust
kts
11/05:00pm 18.5 14.2 7.9 50 5.4 S 20 32 11 17 1023.0 1023.0 0.0
11/04:30pm 18.8 14.4 7.6 48 5.7 S 20 28 11 15 1023.1 1023.1 0.0
11/04:00pm 19.1 14.8 9.3 53 5.2 S 22 32 12 17 1023.4 1023.4 0.0
11/03:30pm 19.2 13.5 8.5 50 5.5 SSW 28 39 15 21 1023.4 1023.4 0.0
11/03:00pm 18.9 14.0 8.3 50 5.4 S 24 35 13 19 1023.5 1023.5 0.0
11/02:30pm 18.5 13.9 6.4 45 6.0 SSE 20 32 11 17 1023.6 1023.6 0.0
11/02:00pm 19.5 15.0 6.9 44 6.4 S 20 35 11 19 1023.7 1023.7 0.0
11/01:30pm 19.2 14.2 6.3 43 6.4 S 22 33 12 18 1023.9 1023.9 0.0
11/01:00pm 19.2 14.6 6.7 44 6.3 S 20 28 11 15 1024.1 1024.1 0.0
11/12:30pm 19.3 14.3 6.4 43 6.4 SSE 22 32 12 17 1024.3 1024.3 0.0
11/12:00pm 18.2 12.8 6.4 46 5.8 S 24 33 13 18 1024.4 1024.4 0.0
11/11:30am 18.0 12.4 7.1 49 5.4 SSE 26 35 14 19 1024.4 1024.4 0.0
11/11:00am 18.1 12.7 8.1 52 5.1 SSE 26 35 14 19 1024.6 1024.6 0.0
11/10:30am 18.1 12.1 6.9 48 5.6 S 28 39 15 21 1024.6 1024.6 0.0
11/10:00am 18.3 12.1 6.2 45 6.0 SSE 28 39 15 21 1024.6 1024.6 0.0
11/09:30am 18.1 12.0 6.6 47 5.7 SSE 28 39 15 21 1024.5 1024.5 0.0
11/09:00am 17.0 11.8 7.4 53 4.8 SSE 24 35 13 19 1024.3 1024.3 2.2
11/08:30am 17.0 11.8 8.9 59 4.2 SSE 26 39 14 21 1024.0 1024.0 2.2
11/08:00am 16.7 11.2 7.4 54 4.6 SSE 26 35 14 19 1023.5 1023.5 2.2
11/07:30am 16.3 11.2 7.5 56 4.4 SSE 24 37 13 20 1023.2 1023.2 2.2
11/07:00am 15.9 10.9 7.9 59 4.0 SSE 24 37 13 20 1022.9 1022.9 2.2
11/06:30am 15.6 10.6 8.1 61 3.8 SSE 24 33 13 18 1022.4 1022.4 2.2
11/06:00am 15.1 10.4 9.2 68 3.0 SSE 24 35 13 19 1022.4 1022.4 2.2
11/05:30am 14.7 10.4 10.7 77 2.1 SSE 24 37 13 20 1022.2 1022.2 2.2
11/05:00am 14.3 9.8 11.3 82 1.6 S 26 39 14 21 1022.1 1022.1 2.2
11/04:46am 14.6 9.6 10.8 78 2.0 S 28 46 15 25 1022.0 1022.0 2.2
11/04:39am 15.0 11.5 10.8 76 2.2 SW 20 43 11 23 1021.8 1021.8 2.2
11/04:30am 14.7 11.6 10.3 75 2.3 WSW 17 22 9 12 1021.6 1021.6 2.2
11/04:00am 15.4 11.3 10.2 71 2.7 SSE 22 32 12 17 1021.3 1021.3 2.2
11/03:30am 13.9 12.0 11.8 87 1.1 SSE 13 22 7 12 1021.2 1021.2 2.2
11/03:19am 13.8 10.7 12.2 90 0.9 SSE 20 28 11 15 1021.3 1021.3 2.2
11/03:02am 13.9 8.5 12.3 90 0.9 S 32 43 17 23 1021.4 1021.4 2.0
11/03:00am 14.1 8.7 12.1 88 1.1 S 32 43 17 23 1021.3 1021.3 2.0
11/02:30am 14.9 10.8 10.1 73 2.5 SSW 22 28 12 15 1021.1 1021.1 2.0
11/02:00am 14.2 12.6 11.7 85 1.3 SW 11 17 6 9 1021.2 1021.2 2.0
11/01:30am 14.5 12.2 11.7 83 1.5 SSW 15 20 8 11 1021.4 1021.4 1.8
11/01:27am 14.5 12.0 11.1 80 1.8 SSW 15 20 8 11 1021.3 1021.3 1.8
11/01:09am 13.8 11.0 11.5 86 1.2 SW 17 20 9 11 1021.4 1021.4 1.6
11/01:00am 14.1 10.9 11.4 84 1.4 SW 19 28 10 15 1021.2 1021.2 1.0
11/12:30am 13.7 11.8 11.9 89 1.0 WSW 13 17 7 9 1021.4 1021.4 1.0
11/12:19am 13.7 11.4 11.9 89 1.0 SW 15 22 8 12 1021.3 1021.3 1.0
11/12:00am 13.9 9.5 11.8 87 1.1 SSW 26 39 14 21 1021.5 1021.5 1.0
 
Date/Time
CST
Temp
°C
App
Temp
°C
Dew
Point
°C
Rel
Hum
%
Delta-T
°C
Wind Press
QNH
hPa
Press
MSL
hPa
Rain since
9am
mm
Dir  Spd
km/h
Gust
km/h
Spd
kts
Gust
kts
10/11:59pm 14.0 9.7 11.9 87 1.1 SSW 26 39 14 21 1021.5 1021.5 1.0
10/11:30pm 14.8 11.5 10.8 77 2.1 SW 19 28 10 15 1021.3 1021.3 0.6
10/11:00pm 15.6 11.6 10.6 72 2.6 SSW 22 32 12 17 1021.6 1021.6 0.4
10/10:30pm 16.3 11.0 9.9 66 3.3 SSE 28 43 15 23 1021.4 1021.4 0.4
10/10:00pm 17.5 11.7 8.1 54 4.8 SSW 28 39 15 21 1021.0 1021.0 0.4
10/09:30pm 17.1 11.8 6.9 51 5.0 SSW 24 33 13 18 1021.0 1021.0 0.4
10/09:00pm 17.1 11.3 6.3 49 5.3 SSW 26 35 14 19 1020.6 1020.6 0.4
10/08:30pm 17.3 10.2 6.5 49 5.3 SSW 33 46 18 25 1020.2 1020.2 0.4
10/08:00pm 17.2 10.9 8.9 58 4.3 SSW 32 43 17 23 1020.0 1020.0 0.4
10/07:30pm 17.5 12.4 9.2 58 4.3 SSW 26 35 14 19 1019.6 1019.6 0.4
10/07:00pm 17.2 12.2 9.4 60 4.1 SSW 26 35 14 19 1019.2 1019.2 0.4
10/06:30pm 17.7 12.8 9.8 60 4.2 SSW 26 32 14 17 1018.9 1018.9 0.4
10/06:00pm 17.8 11.4 9.4 58 4.4 SSW 33 44 18 24 1018.5 1018.5 0.4
10/05:30pm 18.1 11.3 10.5 61 4.1 SSW 37 50 20 27 1018.0 1018.0 0.4
10/05:00pm 18.2 12.3 11.3 64 3.8 S 33 46 18 25 1017.9 1017.9 0.4
10/04:30pm 18.0 12.6 12.7 71 3.0 S 33 46 18 25 1017.7 1017.7 0.4
10/04:19pm 17.6 11.5 13.1 75 2.5 S 37 50 20 27 1017.7 1017.7 0.4
10/04:09pm 17.5 12.6 14.2 81 1.9 SSW 33 52 18 28 1017.7 1017.7 0.4
10/04:01pm 17.3 11.8 14.6 84 1.6 S 37 52 20 28 1017.6 1017.6 0.4
10/04:00pm 17.4 12.1 14.1 81 1.9 S 35 52 19 28 1017.7 1017.7 0.2
10/03:30pm 19.5 13.0 12.8 65 3.8 S 39 50 21 27 1017.4 1017.4 0.0
10/03:00pm 19.5 12.5 12.5 64 3.9 S 41 54 22 29 1017.1 1017.1 0.0
10/02:30pm 20.9 14.9 12.1 57 4.9 S 35 46 19 25 1016.8 1016.8 0.0
10/02:00pm 21.4 15.5 11.1 52 5.7 S 33 46 18 25 1016.8 1016.8 0.0
10/01:30pm 21.1 15.5 10.3 50 5.9 S 30 44 16 24 1017.0 1017.0 0.0
10/01:00pm 20.0 14.3 11.0 56 4.9 S 32 41 17 22 1017.1 1017.1 0.0
10/12:30pm 20.4 15.7 10.5 53 5.4 SSW 26 37 14 20 1017.4 1017.4 0.0
10/12:00pm 20.2 13.5 10.9 55 5.1 SSW 37 50 20 27 1017.7 1017.7 0.0
10/11:30am 19.0 12.8 12.5 66 3.6 SSW 37 50 20 27 1017.6 1017.6 0.0
10/11:07am 20.5 13.9 12.5 60 4.5 SSW 39 59 21 32 1017.2 1017.2 0.0
10/11:00am 20.3 14.4 11.2 56 5.0 S 33 44 18 24 1017.3 1017.3 0.0
10/10:30am 19.4 14.7 10.7 57 4.7 SSW 26 37 14 20 1017.4 1017.4 0.0
10/10:00am 18.9 13.9 11.0 60 4.3 SW 28 37 15 20 1017.6 1017.6 0.0
10/09:30am 17.0 11.4 11.5 70 3.0 SW 32 44 17 24 1017.7 1017.7 0.0
10/09:00am 17.7 12.5 10.1 61 4.0 SW 28 41 15 22 1017.5 1017.5 0.0
10/08:30am 16.9 12.6 9.3 61 3.9 SW 22 33 12 18 1017.3 1017.3 0.0
10/08:00am 16.2 12.4 8.9 62 3.7 SW 19 24 10 13 1016.8 1016.8 0.0
10/07:30am 14.7 10.6 7.7 63 3.5 WSW 19 22 10 12 1016.4 1016.4 0.0
10/07:00am 14.7 11.3 7.7 63 3.5 WSW 15 20 8 11 1016.1 1016.1 0.0
10/06:30am 15.2 12.0 8.4 64 3.4 WSW 15 20 8 11 1016.0 1016.0 0.0
10/06:00am 15.5 10.6 8.3 62 3.6 SW 24 35 13 19 1015.9 1015.9 0.0
10/05:30am 14.7 11.2 8.6 67 3.1 SW 17 26 9 14 1015.4 1015.4 0.0
10/05:00am 14.7 11.1 8.4 66 3.2 SW 17 22 9 12 1015.1 1015.1 0.0
10/04:30am 15.5 10.4 7.5 59 4.0 SW 24 35 13 19 1015.1 1015.1 0.0
10/04:00am 15.6 11.0 6.6 55 4.4 WSW 20 26 11 14 1015.1 1015.1 0.0
10/03:30am 15.4 11.8 6.9 57 4.2 WSW 15 19 8 10 1015.0 1015.0 0.0
10/03:00am 15.0 11.5 7.1 59 3.9 WSW 15 20 8 11 1015.1 1015.1 0.0
10/02:30am 15.2 11.7 7.3 59 3.9 SW 15 20 8 11 1015.3 1015.3 0.0
10/02:00am 14.8 11.1 7.8 63 3.5 WSW 17 22 9 12 1015.4 1015.4 0.0
10/01:30am 14.1 10.4 7.9 66 3.1 SW 17 24 9 13 1015.4 1015.4 0.0
10/01:00am 13.5 9.8 8.1 70 2.7 WSW 17 22 9 12 1015.1 1015.1 0.0
10/12:30am 13.8 10.3 8.6 71 2.6 WSW 17 22 9 12 1015.1 1015.1 0.0
10/12:00am 14.6 11.0 8.5 67 3.1 SW 17 24 9 13 1015.1 1015.1 0.0
 
Date/Time
CST
Temp
°C
App
Temp
°C
Dew
Point
°C
Rel
Hum
%
Delta-T
°C
Wind Press
QNH
hPa
Press
MSL
hPa
Rain since
9am
mm
Dir  Spd
km/h
Gust
km/h
Spd
kts
Gust
kts
09/11:30pm 14.1 10.9 8.5 69 2.8 WSW 15 20 8 11 1015.3 1015.3 0.0
09/11:00pm 14.0 10.8 8.4 69 2.8 WSW 15 20 8 11 1015.4 1015.4 0.0
09/10:30pm 14.5 11.4 8.7 68 2.9 WSW 15 17 8 9 1015.4 1015.4 0.0
09/10:00pm 15.7 11.9 8.9 64 3.5 SW 19 22 10 12 1015.4 1015.4 0.0
09/09:30pm 16.2 11.5 9.2 63 3.6 SSW 24 32 13 17 1015.3 1015.3 0.0
09/09:00pm 15.9 12.5 9.1 64 3.5 SW 17 22 9 12 1015.2 1015.2 0.0
09/08:30pm 16.3 12.6 9.5 64 3.5 SW 19 22 10 12 1015.0 1015.0 0.0
09/08:00pm 16.9 13.3 9.8 63 3.7 SSW 19 24 10 13 1014.7 1014.7 0.0
09/07:30pm 17.1 13.5 10.0 63 3.7 SSW 19 26 10 14 1014.4 1014.4 0.0
09/07:00pm 17.6 13.9 10.2 62 3.9 SSW 20 28 11 15 1014.0 1014.0 0.0
09/06:30pm 17.7 14.4 9.6 59 4.3 SW 17 22 9 12 1013.5 1013.5 0.0
09/06:00pm 18.0 13.8 9.9 59 4.3 SSW 22 32 12 17 1013.4 1013.4 0.0
09/05:30pm 18.2 13.7 10.1 59 4.3 SSW 24 32 13 17 1013.2 1013.2 0.0
09/05:00pm 18.4 13.1 10.0 58 4.5 SSW 28 37 15 20 1013.4 1013.4 0.0
09/04:30pm 18.8 14.2 10.9 60 4.3 SSW 26 35 14 19 1012.9 1012.9 0.0
09/04:00pm 18.7 14.2 11.5 63 3.9 SSW 26 35 14 19 1012.7 1012.7 0.0
09/03:30pm 18.8 14.1 12.1 65 3.7 SSW 28 41 15 22 1012.7 1012.7 0.0
09/03:00pm 19.1 14.4 12.1 64 3.9 S 28 37 15 20 1012.3 1012.3 0.0
09/02:30pm 19.4 14.8 12.4 64 3.9 S 28 37 15 20 1012.5 1012.5 0.0
09/02:00pm 19.8 15.3 12.6 63 4.0 S 28 39 15 21 1012.3 1012.3 0.0
09/01:30pm 20.1 16.2 13.3 65 3.9 S 26 39 14 21 1012.6 1012.6 0.0
09/01:00pm 20.4 17.1 14.1 67 3.6 S 24 33 13 18 1013.1 1013.1 0.0
09/12:30pm 20.8 18.1 14.5 67 3.7 S 22 28 12 15 1013.3 1013.3 0.0
09/12:00pm 20.3 17.5 14.4 69 3.4 S 22 35 12 19 1013.6 1013.6 0.0
09/11:30am 20.5 18.1 14.4 68 3.6 S 20 32 11 17 1013.8 1013.8 0.0
09/11:00am 20.7 18.6 14.6 68 3.6 S 19 26 10 14 1013.7 1013.7 0.0
09/10:30am 20.1 17.9 14.9 72 3.0 SSE 20 28 11 15 1013.7 1013.7 0.0
09/10:00am 21.0 19.1 15.3 70 3.4 SSE 19 26 10 14 1013.6 1013.6 0.0
09/09:30am 19.9 17.8 15.3 75 2.7 SSE 20 30 11 16 1013.8 1013.8 0.0
09/09:00am 19.6 17.7 15.3 76 2.5 SSE 19 30 10 16 1013.8 1013.8 0.0
09/08:30am 19.4 17.4 15.5 78 2.3 SSE 20 28 11 15 1013.6 1013.6 0.0
09/08:00am 19.4 17.5 15.7 79 2.2 SSE 20 32 11 17 1013.4 1013.4 0.0
09/07:30am 19.1 17.3 15.6 80 2.1 SSE 19 26 10 14 1012.9 1012.9 0.0
09/07:00am 19.1 16.8 15.6 80 2.1 S 22 32 12 17 1012.9 1012.9 0.0
09/06:43am 19.2 17.3 15.7 80 2.1 SSE 20 30 11 16 1012.3 1012.3 0.0
09/06:30am 19.2 17.1 16.1 82 1.8 SSE 22 32 12 17 1012.3 1012.3 0.0
09/06:02am 19.2 17.1 16.1 82 1.8 SSE 22 33 12 18 1011.7 1011.7 0.0
09/06:00am 19.3 17.2 16.2 82 1.9 SSE 22 33 12 18 1011.4 1011.4 0.0
09/05:30am 19.4 17.6 16.1 81 2.0 SSE 20 28 11 15 1011.0 1011.0 0.0
09/05:00am 19.6 16.9 15.7 78 2.3 S 24 35 13 19 1011.4 1011.4 0.0
09/04:30am 19.7 16.9 15.4 76 2.5 SSE 24 37 13 20 1010.9 1010.9 0.0
09/04:00am 20.0 17.2 16.4 80 2.2 S 26 37 14 20 1011.3 1011.3 0.0
09/03:30am 20.2 16.8 16.8 81 2.1 S 30 39 16 21 1010.9 1010.9 0.0
09/03:00am 20.6 17.4 16.2 76 2.6 S 28 35 15 19 1010.4 1010.4 0.0
09/02:58am 20.6 17.4 16.4 77 2.5 S 28 35 15 19 1010.4 1010.4 0.0
09/02:30am 20.2 19.3 18.3 89 1.2 SSW 20 30 11 16 1010.4 1010.4 0.0
09/02:00am 20.1 19.2 18.1 88 1.2 SSW 20 26 11 14 1010.2 1010.2 0.0
09/01:33am 20.2 19.4 18.0 87 1.4 SSW 19 24 10 13 1010.2 1010.2 0.0
09/01:30am 20.2 19.4 18.0 87 1.4 SSW 19 26 10 14 1010.3 1010.3 0.0
09/01:00am 20.1 19.1 17.5 85 1.6 SSW 19 24 10 13 1010.4 1010.4 0.0
09/12:30am 20.3 19.1 17.5 84 1.7 SSW 20 30 11 16 1010.5 1010.5 0.0
09/12:00am 20.7 19.4 16.7 78 2.4 SSW 19 28 10 15 1010.5 1010.5 0.0
 
Date/Time
CST
Temp
°C
App
Temp
°C
Dew
Point
°C
Rel
Hum
%
Delta-T
°C
Wind Press
QNH
hPa
Press
MSL
hPa
Rain since
9am
mm
Dir  Spd
km/h
Gust
km/h
Spd
kts
Gust
kts
08/11:30pm 21.2 19.0 14.4 65 4.0 SSW 19 24 10 13 1010.7 1010.7 0.0
08/11:00pm 20.1 18.4 11.3 57 4.8 WSW 11 13 6 7 1010.5 1010.5 0.0
08/10:30pm 20.8 19.9 12.5 59 4.7 WSW 9 11 5 6 1010.4 1010.4 0.0
08/10:00pm 21.4 20.8 13.6 61 4.5 WSW 9 11 5 6 1010.4 1010.4 0.0
08/09:30pm 21.7 22.1 14.8 65 4.1 NNW 6 9 3 5 1010.2 1010.2 0.0
08/09:00pm 22.7 22.9 15.8 65 4.2 SSW 9 13 5 7 1009.6 1009.6 0.0
08/08:30pm 23.2 22.5 15.5 62 4.6 S 13 17 7 9 1009.5 1009.5 0.0
08/08:00pm 23.4 21.6 15.5 61 4.7 S 19 24 10 13 1009.6 1009.6 0.0
08/07:30pm 23.8 21.9 16.6 64 4.4 SSW 22 30 12 16 1009.3 1009.3 0.0
08/07:00pm 24.3 23.7 17.5 66 4.2 SSW 17 20 9 11 1008.3 1008.3 0.0
08/06:30pm 25.3 24.1 16.2 57 5.6 S 17 24 9 13 1007.9 1007.9 0.0
08/06:00pm 26.6 23.1 14.4 47 7.3 S 26 32 14 17 1007.5 1007.5 0.0
08/05:30pm 29.1 23.5 10.3 31 10.7 SSW 30 43 16 23 1006.7 1006.7 0.0
08/05:16pm 31.8 25.7 6.8 21 13.5 WNW 28 44 15 24 1006.6 1006.6 0.0

Other formats

Comma delimited format used in spreadsheet applications
http://www.bom.gov.au/fwo/IDS60801/IDS60801.95664.axf

JavaScript Object Notation format (JSON) in row-major order
http://www.bom.gov.au/fwo/IDS60801/IDS60801.95664.json

Data quality

Most of these data are generated automatically and are frequently updated. Quality checks on data are not normally performed. It is possible for incorrect values to appear. Refer to information at About Latest Weather Observations and please check the disclaimer before using these data.